sim
Sign-in with your pilot id or email,
or register
Callsign
Passwort

Schedule Details

Flight Number: OEO1575
Departure: Birmingham Airport (EGBB) at 16:20
Arrival: Munich Airport (EDDM) at 18:15

Weather Information
Getting current METAR information for EGBB 202020Z 05005KT 010V080 CAVOK 14/10 Q1021
Getting current METAR information for EDDM 202020Z 00000KT CAVOK 11/10 Q1016 NOSIG

Schedule Frequency

Route Map